createdAt,value
2023-05-21T00:02:11.734Z,13.02
2023-05-21T00:04:57.830Z,13.01
2023-05-21T00:10:52.708Z,13.07
2023-05-21T00:16:55.296Z,13.22
2023-05-21T00:19:42.906Z,13.27
2023-05-21T00:22:28.883Z,13.37
2023-05-21T00:25:15.076Z,13.40
2023-05-21T00:28:07.837Z,13.39
2023-05-21T00:31:01.324Z,13.40
2023-05-21T00:36:50.132Z,13.41
2023-05-21T00:42:57.062Z,13.35
2023-05-21T00:45:49.653Z,13.38
2023-05-21T00:52:01.343Z,13.29
2023-05-21T00:54:54.132Z,13.11
2023-05-21T00:57:45.911Z,13.16
2023-05-21T01:00:40.537Z,13.10
2023-05-21T01:03:38.392Z,13.07
2023-05-21T01:06:34.515Z,13.02
2023-05-21T01:12:43.999Z,12.91
2023-05-21T01:15:38.230Z,12.87
2023-05-21T01:18:35.049Z,12.85
2023-05-21T01:21:30.211Z,12.85
2023-05-21T01:24:24.974Z,12.86
2023-05-21T01:27:18.224Z,12.80
2023-05-21T01:33:35.868Z,12.74
2023-05-21T01:40:22.095Z,12.72
2023-05-21T01:43:15.289Z,12.74
2023-05-21T01:46:08.734Z,12.74
2023-05-21T01:49:01.710Z,12.77
2023-05-21T01:51:55.310Z,12.74
2023-05-21T01:54:54.388Z,12.69
2023-05-21T01:57:48.082Z,12.70
2023-05-21T02:00:40.856Z,12.69
2023-05-21T02:03:34.595Z,12.65
2023-05-21T02:06:28.116Z,12.64
2023-05-21T02:09:20.923Z,12.62
2023-05-21T02:12:51.160Z,12.55
2023-05-21T02:15:44.896Z,12.51
2023-05-21T02:18:39.361Z,12.28
2023-05-21T02:21:32.000Z,12.37
2023-05-21T02:24:18.833Z,12.25
2023-05-21T02:27:13.614Z,12.25
2023-05-21T02:30:07.806Z,12.28
2023-05-21T02:33:02.761Z,12.32
2023-05-21T02:35:55.736Z,12.30
2023-05-21T02:38:46.553Z,12.30
2023-05-21T02:41:38.916Z,12.29
2023-05-21T02:44:31.997Z,12.27
2023-05-21T02:47:25.495Z,12.24
2023-05-21T02:50:22.274Z,12.24
2023-05-21T02:56:33.216Z,12.24
2023-05-21T03:02:42.329Z,12.31
2023-05-21T03:08:48.664Z,12.28
2023-05-21T03:11:41.234Z,12.28
2023-05-21T03:14:33.718Z,12.28
2023-05-21T03:17:27.056Z,12.23
2023-05-21T03:20:20.024Z,12.20
2023-05-21T03:23:16.374Z,12.14
2023-05-21T03:26:11.454Z,12.17
2023-05-21T03:29:03.862Z,12.17
2023-05-21T03:31:57.648Z,12.15
2023-05-21T03:34:50.966Z,12.33
2023-05-21T03:37:45.045Z,12.49
2023-05-21T03:40:37.700Z,12.61
2023-05-21T03:43:32.371Z,12.74
2023-05-21T03:46:26.185Z,12.85
2023-05-21T03:49:25.748Z,12.94
2023-05-21T03:52:20.703Z,13.01
2023-05-21T03:58:47.338Z,13.10
2023-05-21T04:01:39.948Z,13.12
2023-05-21T04:07:50.407Z,13.23
2023-05-21T04:10:43.035Z,13.24
2023-05-21T04:16:49.866Z,13.46
2023-05-21T04:22:55.328Z,13.70
2023-05-21T04:25:50.543Z,13.83
2023-05-21T04:28:45.744Z,13.99
2023-05-21T04:31:40.137Z,14.14
2023-05-21T04:34:34.649Z,14.30
2023-05-21T04:37:28.069Z,14.46
2023-05-21T04:40:24.258Z,14.60
2023-05-21T04:43:17.218Z,14.74
2023-05-21T04:46:10.819Z,14.90
2023-05-21T04:49:04.426Z,14.93
2023-05-21T04:51:59.033Z,15.16
2023-05-21T04:54:53.928Z,15.34
2023-05-21T04:57:46.828Z,15.45
2023-05-21T05:00:42.200Z,15.63
2023-05-21T05:03:34.661Z,15.81
2023-05-21T05:06:27.080Z,15.95
2023-05-21T05:09:24.987Z,16.08
2023-05-21T05:12:18.009Z,16.16
2023-05-21T05:15:11.654Z,16.31
2023-05-21T05:17:58.390Z,16.44
2023-05-21T05:20:50.649Z,16.38
2023-05-21T05:23:44.236Z,16.52
2023-05-21T05:26:38.628Z,16.75
2023-05-21T05:29:30.905Z,16.94
2023-05-21T05:32:24.530Z,17.04
2023-05-21T05:35:17.526Z,17.08
2023-05-21T05:41:30.839Z,16.99
2023-05-21T05:44:25.324Z,17.38
2023-05-21T05:47:17.745Z,17.41
2023-05-21T05:50:09.992Z,16.99
2023-05-21T05:53:02.797Z,17.29
2023-05-21T05:55:56.016Z,17.40
2023-05-21T05:58:48.952Z,17.61
2023-05-21T06:01:44.015Z,17.88
2023-05-21T06:07:53.271Z,18.03
2023-05-21T06:14:00.736Z,18.20
2023-05-21T06:20:10.134Z,18.31
2023-05-21T06:23:03.135Z,18.62
2023-05-21T06:25:55.898Z,18.67
2023-05-21T06:28:48.918Z,18.88
2023-05-21T06:31:41.863Z,19.02
2023-05-21T06:34:35.087Z,19.06
2023-05-21T06:37:29.378Z,19.23
2023-05-21T06:40:22.732Z,19.09
2023-05-21T06:43:18.947Z,18.92
2023-05-21T06:46:42.803Z,18.87
2023-05-21T06:49:35.987Z,18.92
2023-05-21T06:52:31.631Z,18.85
2023-05-21T06:55:25.133Z,18.61
2023-05-21T06:58:39.608Z,19.35
2023-05-21T07:01:32.438Z,19.62
2023-05-21T07:04:26.512Z,19.71
2023-05-21T07:07:18.703Z,19.88
2023-05-21T07:10:13.171Z,19.53
2023-05-21T07:13:31.201Z,18.67
2023-05-21T07:16:24.170Z,18.45
2023-05-21T07:19:16.897Z,18.62
2023-05-21T07:25:19.575Z,19.11
2023-05-21T07:28:11.856Z,20.09
2023-05-21T07:31:14.813Z,20.41
2023-05-21T07:34:12.186Z,21.21
2023-05-21T07:40:10.060Z,21.95
2023-05-21T07:43:04.387Z,21.39
2023-05-21T07:45:58.545Z,21.97
2023-05-21T07:48:52.750Z,21.99
2023-05-21T07:51:46.735Z,22.49
2023-05-21T07:55:12.903Z,22.58
2023-05-21T07:58:08.016Z,23.11
2023-05-21T08:01:26.008Z,23.89
2023-05-21T08:04:19.264Z,23.68
2023-05-21T08:07:13.635Z,23.96
2023-05-21T08:10:01.679Z,24.32
2023-05-21T08:12:49.452Z,24.41
2023-05-21T08:15:37.696Z,24.01
2023-05-21T08:21:41.306Z,23.90
2023-05-21T08:24:27.519Z,24.24
2023-05-21T08:27:16.002Z,22.91
2023-05-21T08:30:02.062Z,22.99
2023-05-21T08:32:49.909Z,23.95
2023-05-21T08:35:39.160Z,24.43
2023-05-21T08:41:54.590Z,23.67
2023-05-21T08:47:57.596Z,22.16
2023-05-21T08:53:58.408Z,22.70
2023-05-21T08:56:46.855Z,22.89
2023-05-21T08:59:35.859Z,23.51
2023-05-21T09:02:25.028Z,24.14
2023-05-21T09:05:13.305Z,24.53
2023-05-21T09:08:05.325Z,24.88
2023-05-21T09:10:57.398Z,24.04
2023-05-21T09:13:50.200Z,24.67
2023-05-21T09:16:43.799Z,25.64
2023-05-21T09:19:32.008Z,26.32
2023-05-21T09:22:24.345Z,25.83
2023-05-21T09:28:27.272Z,26.80
2023-05-21T09:31:13.149Z,25.11
2023-05-21T09:33:59.559Z,25.46
2023-05-21T09:36:46.940Z,24.69
2023-05-21T09:39:34.844Z,24.80
2023-05-21T09:42:23.381Z,26.38
2023-05-21T09:48:34.702Z,27.68
2023-05-21T09:51:22.230Z,28.38
2023-05-21T09:54:08.048Z,27.72
2023-05-21T09:56:55.742Z,27.31
2023-05-21T09:59:42.465Z,27.81
2023-05-21T10:02:29.985Z,28.01
2023-05-21T10:08:36.985Z,26.76
2023-05-21T10:14:36.972Z,25.84
2023-05-21T10:17:24.227Z,26.15
2023-05-21T10:23:23.949Z,26.10
2023-05-21T10:26:10.347Z,26.86
2023-05-21T10:28:58.403Z,27.47
2023-05-21T10:31:49.208Z,28.93
2023-05-21T10:34:35.962Z,27.70
2023-05-21T10:37:24.518Z,27.30
2023-05-21T10:40:11.612Z,28.32
2023-05-21T10:46:33.079Z,29.66
2023-05-21T10:49:31.298Z,30.06
2023-05-21T10:52:26.135Z,30.28
2023-05-21T10:58:40.484Z,29.60
2023-05-21T11:01:28.674Z,29.18
2023-05-21T11:04:15.695Z,29.20
2023-05-21T11:07:03.083Z,27.96
2023-05-21T11:13:17.180Z,27.43
2023-05-21T11:16:15.671Z,28.64
2023-05-21T11:22:26.478Z,29.62
2023-05-21T11:25:19.682Z,30.07
2023-05-21T11:28:11.947Z,30.99
2023-05-21T11:31:24.095Z,31.59
2023-05-21T11:34:20.109Z,29.73
2023-05-21T11:40:36.682Z,28.91
2023-05-21T11:43:29.903Z,29.64
2023-05-21T11:46:22.635Z,29.37
2023-05-21T11:49:16.470Z,30.79
2023-05-21T11:52:10.499Z,30.98
2023-05-21T11:55:02.829Z,30.75
2023-05-21T12:01:45.011Z,29.92
2023-05-21T12:04:52.984Z,29.04
2023-05-21T12:07:48.432Z,29.31
2023-05-21T12:14:01.931Z,29.35
2023-05-21T12:16:56.619Z,29.08
2023-05-21T12:19:50.600Z,28.15
2023-05-21T12:22:44.076Z,29.24
2023-05-21T12:26:14.266Z,29.02
2023-05-21T12:29:07.328Z,28.75
2023-05-21T12:32:37.293Z,29.79
2023-05-21T12:35:31.746Z,29.72
2023-05-21T12:41:27.892Z,29.48
2023-05-21T12:44:20.921Z,29.40
2023-05-21T12:47:15.783Z,29.84
2023-05-21T12:50:11.609Z,29.77
2023-05-21T12:53:05.551Z,29.20
2023-05-21T12:56:08.798Z,28.53
2023-05-21T12:59:00.658Z,29.15
2023-05-21T13:05:06.627Z,28.09
2023-05-21T13:07:58.950Z,28.58
2023-05-21T13:10:53.689Z,28.59
2023-05-21T13:13:46.321Z,28.32
2023-05-21T13:16:38.939Z,28.39
2023-05-21T13:19:32.057Z,29.46
2023-05-21T13:22:50.398Z,29.35
2023-05-21T13:25:43.092Z,29.81
2023-05-21T13:28:37.528Z,30.09
2023-05-21T13:31:30.003Z,30.84
2023-05-21T13:34:23.193Z,31.32
2023-05-21T13:37:16.293Z,31.14
2023-05-21T13:40:11.908Z,30.73
2023-05-21T13:43:05.291Z,30.55
2023-05-21T13:46:22.165Z,30.11
2023-05-21T13:49:10.179Z,30.33
2023-05-21T13:55:11.867Z,30.70
2023-05-21T13:58:04.331Z,30.53
2023-05-21T14:00:57.211Z,29.79
2023-05-21T14:03:49.960Z,29.72
2023-05-21T14:06:44.559Z,29.82
2023-05-21T14:09:31.303Z,29.67
2023-05-21T14:12:23.739Z,29.86
2023-05-21T14:15:16.209Z,30.77
2023-05-21T14:18:12.119Z,30.29
2023-05-21T14:21:04.994Z,29.76
2023-05-21T14:23:59.641Z,29.96
2023-05-21T14:30:09.539Z,30.61
2023-05-21T14:33:02.110Z,29.74
2023-05-21T14:35:54.927Z,29.49
2023-05-21T14:38:48.280Z,28.98
2023-05-21T14:41:42.663Z,28.72
2023-05-21T14:44:45.550Z,28.87
2023-05-21T14:47:32.291Z,28.00
2023-05-21T14:53:32.209Z,28.48
2023-05-21T14:59:43.052Z,28.74
2023-05-21T15:02:36.180Z,28.85
2023-05-21T15:05:29.998Z,28.78
2023-05-21T15:08:23.114Z,28.74
2023-05-21T15:11:16.283Z,28.50
2023-05-21T15:14:09.132Z,28.43
2023-05-21T15:17:03.332Z,29.20
2023-05-21T15:19:56.146Z,29.91
2023-05-21T15:22:49.167Z,29.95
2023-05-21T15:25:41.903Z,29.09
2023-05-21T15:28:28.836Z,29.21
2023-05-21T15:31:22.017Z,28.68
2023-05-21T15:34:17.843Z,28.22
2023-05-21T15:37:09.988Z,28.46
2023-05-21T15:40:03.110Z,28.48
2023-05-21T15:42:56.109Z,28.39
2023-05-21T15:46:26.370Z,28.29
2023-05-21T15:49:20.608Z,27.92
2023-05-21T15:55:16.425Z,27.88
2023-05-21T16:01:22.097Z,28.43
2023-05-21T16:07:31.218Z,28.26
2023-05-21T16:10:25.651Z,28.38
2023-05-21T16:13:18.193Z,28.77
2023-05-21T16:16:11.160Z,29.00
2023-05-21T16:19:03.850Z,28.49
2023-05-21T16:22:01.202Z,28.64
2023-05-21T16:24:54.635Z,27.99
2023-05-21T16:27:48.415Z,27.97
2023-05-21T16:30:41.139Z,28.10
2023-05-21T16:33:34.359Z,28.12
2023-05-21T16:36:27.044Z,27.95
2023-05-21T16:42:50.122Z,28.05
2023-05-21T16:46:06.098Z,27.64
2023-05-21T16:48:54.012Z,27.99
2023-05-21T16:55:34.675Z,28.10
2023-05-21T16:58:29.652Z,27.91
2023-05-21T17:01:21.740Z,27.43
2023-05-21T17:04:13.985Z,27.59
2023-05-21T17:07:07.026Z,27.45
2023-05-21T17:10:00.254Z,27.08
2023-05-21T17:16:10.687Z,27.28
2023-05-21T17:19:03.209Z,27.49
2023-05-21T17:21:52.142Z,27.55
2023-05-21T17:24:45.072Z,27.25
2023-05-21T17:30:54.352Z,27.26
2023-05-21T17:33:48.624Z,27.26
2023-05-21T17:36:41.181Z,27.09
2023-05-21T17:39:33.865Z,26.85
2023-05-21T17:42:26.940Z,26.75
2023-05-21T17:45:19.912Z,26.96
2023-05-21T17:48:13.193Z,27.29
2023-05-21T17:51:07.422Z,27.39
2023-05-21T17:53:59.983Z,27.39
2023-05-21T17:56:52.857Z,27.17
2023-05-21T17:59:46.142Z,27.09
2023-05-21T18:02:39.332Z,26.85
2023-05-21T18:05:49.370Z,26.09
2023-05-21T18:08:40.643Z,26.15
2023-05-21T18:11:33.100Z,26.08
2023-05-21T18:14:26.281Z,25.91
2023-05-21T18:17:19.356Z,25.60
2023-05-21T18:20:13.514Z,25.32
2023-05-21T18:23:06.069Z,25.37
2023-05-21T18:26:00.360Z,25.29
2023-05-21T18:28:53.401Z,25.18
2023-05-21T18:31:46.309Z,25.03
2023-05-21T18:34:41.476Z,25.05
2023-05-21T18:37:34.149Z,24.63
2023-05-21T18:40:30.565Z,24.72
2023-05-21T18:43:24.354Z,24.87
2023-05-21T18:46:17.326Z,24.76
2023-05-21T18:49:09.787Z,24.80
2023-05-21T18:52:02.023Z,24.60
2023-05-21T18:54:55.251Z,24.34
2023-05-21T18:57:48.128Z,24.36
2023-05-21T19:00:43.259Z,24.16
2023-05-21T19:06:48.472Z,23.57
2023-05-21T19:09:41.234Z,23.22
2023-05-21T19:12:35.987Z,22.87
2023-05-21T19:15:29.144Z,22.31
2023-05-21T19:18:29.961Z,22.31
2023-05-21T19:21:22.741Z,22.08
2023-05-21T19:24:15.440Z,21.94
2023-05-21T19:27:07.709Z,21.84
2023-05-21T19:29:54.248Z,21.83
2023-05-21T19:32:47.617Z,21.56
2023-05-21T19:35:43.153Z,21.45
2023-05-21T19:38:36.459Z,21.33
2023-05-21T19:41:29.119Z,20.84
2023-05-21T19:44:22.068Z,21.00
2023-05-21T19:47:14.918Z,20.84
2023-05-21T19:50:09.288Z,20.69
2023-05-21T19:53:03.478Z,20.73
2023-05-21T19:55:56.441Z,20.58
2023-05-21T19:58:48.998Z,20.90
2023-05-21T20:01:44.096Z,20.74
2023-05-21T20:04:37.002Z,20.82
2023-05-21T20:07:30.379Z,20.67
2023-05-21T20:10:24.414Z,20.48
2023-05-21T20:13:31.577Z,20.28
2023-05-21T20:16:24.341Z,20.18
2023-05-21T20:22:42.298Z,20.65
2023-05-21T20:29:01.390Z,20.82
2023-05-21T20:31:54.148Z,20.53
2023-05-21T20:38:02.012Z,19.88
2023-05-21T20:40:55.831Z,19.77
2023-05-21T20:43:48.350Z,19.98
2023-05-21T20:49:54.785Z,20.30
2023-05-21T20:52:47.539Z,20.31
2023-05-21T20:55:44.366Z,20.39
2023-05-21T20:58:39.762Z,20.50
2023-05-21T21:01:32.736Z,20.86
2023-05-21T21:04:25.565Z,21.11
2023-05-21T21:07:19.971Z,21.24
2023-05-21T21:10:13.323Z,21.28
2023-05-21T21:16:27.365Z,20.99
2023-05-21T21:22:30.525Z,20.99
2023-05-21T21:28:39.260Z,20.71
2023-05-21T21:31:32.387Z,20.62
2023-05-21T21:34:25.410Z,19.97
2023-05-21T21:37:18.353Z,19.68
2023-05-21T21:40:14.123Z,19.49
2023-05-21T21:43:08.555Z,19.68
2023-05-21T21:46:00.939Z,19.43
2023-05-21T21:52:15.205Z,18.92
2023-05-21T21:58:35.402Z,18.95
2023-05-21T22:01:28.282Z,18.96
2023-05-21T22:04:20.930Z,18.79
2023-05-21T22:07:18.061Z,18.88
2023-05-21T22:10:11.558Z,18.95
2023-05-21T22:13:04.720Z,19.00
2023-05-21T22:15:58.530Z,19.05
2023-05-21T22:18:51.156Z,19.09
2023-05-21T22:21:46.517Z,19.21
2023-05-21T22:27:55.408Z,19.37
2023-05-21T22:34:05.726Z,19.53
2023-05-21T22:36:58.071Z,19.41
2023-05-21T22:39:45.758Z,18.99
2023-05-21T22:42:38.131Z,19.09
2023-05-21T22:45:31.483Z,18.61
2023-05-21T22:48:23.951Z,18.87
2023-05-21T22:51:18.447Z,19.02
2023-05-21T22:54:11.130Z,18.94
2023-05-21T22:57:04.191Z,18.84
2023-05-21T22:59:56.867Z,19.04
2023-05-21T23:02:53.055Z,19.17
2023-05-21T23:05:47.286Z,18.91
2023-05-21T23:08:41.235Z,18.77
2023-05-21T23:12:11.351Z,19.08
2023-05-21T23:15:05.296Z,19.13
2023-05-21T23:17:58.285Z,19.31
2023-05-21T23:20:51.314Z,19.39
2023-05-21T23:23:45.630Z,19.36
2023-05-21T23:26:42.714Z,18.75
2023-05-21T23:29:35.307Z,19.27
2023-05-21T23:32:27.980Z,19.45
2023-05-21T23:35:21.088Z,19.51
2023-05-21T23:38:13.961Z,19.43
2023-05-21T23:41:08.415Z,19.30
2023-05-21T23:44:01.244Z,19.47
2023-05-21T23:50:15.776Z,19.16
2023-05-21T23:56:16.384Z,19.48
2023-05-21T23:59:09.362Z,19.43
